createdAt,value
2018-06-17T00:00:27.764Z,13.10
2018-06-17T00:02:55.683Z,12.87
2018-06-17T00:05:23.578Z,13.50
2018-06-17T00:07:51.447Z,13.40
2018-06-17T00:10:19.405Z,12.87
2018-06-17T00:12:47.276Z,13.20
2018-06-17T00:15:15.053Z,16.07
2018-06-17T00:17:42.902Z,15.33
2018-06-17T00:20:10.534Z,17.90
2018-06-17T00:22:38.428Z,14.63
2018-06-17T00:25:07.440Z,14.60
2018-06-17T00:33:30.696Z,13.20
2018-06-17T00:35:58.595Z,13.60
2018-06-17T00:38:26.355Z,13.73
2018-06-17T00:40:54.223Z,14.77
2018-06-17T00:43:22.023Z,14.77
2018-06-17T00:45:49.895Z,14.17
2018-06-17T00:48:17.721Z,14.90
2018-06-17T00:50:45.603Z,13.33
2018-06-17T00:53:13.467Z,13.43
2018-06-17T00:55:41.257Z,15.13
2018-06-17T00:58:09.080Z,15.17
2018-06-17T01:00:37.072Z,14.13
2018-06-17T01:03:04.860Z,13.07
2018-06-17T01:05:32.826Z,13.93
2018-06-17T01:08:00.684Z,12.50
2018-06-17T01:10:28.542Z,14.20
2018-06-17T01:12:56.360Z,12.50
2018-06-17T01:15:24.161Z,12.57
2018-06-17T01:17:51.835Z,12.77
2018-06-17T01:20:19.729Z,12.57
2018-06-17T01:22:47.472Z,13.53
2018-06-17T01:25:15.192Z,13.07
2018-06-17T01:27:42.970Z,12.43
2018-06-17T01:30:10.708Z,13.63
2018-06-17T01:32:38.499Z,12.27
2018-06-17T01:35:06.368Z,12.83
2018-06-17T01:37:34.194Z,12.80
2018-06-17T01:40:02.173Z,12.73
2018-06-17T01:42:29.966Z,13.03
2018-06-17T01:44:57.811Z,15.00
2018-06-17T01:47:25.668Z,12.23
2018-06-17T01:49:53.509Z,12.10
2018-06-17T01:52:21.455Z,12.63
2018-06-17T01:54:49.222Z,13.97
2018-06-17T01:57:17.106Z,13.97
2018-06-17T01:59:45.075Z,12.77
2018-06-17T02:02:12.885Z,13.30
2018-06-17T02:04:46.332Z,14.10
2018-06-17T02:07:19.638Z,12.73
2018-06-17T02:09:52.971Z,13.73
2018-06-17T02:12:20.848Z,13.50
2018-06-17T02:14:54.693Z,13.53
2018-06-17T02:17:23.695Z,12.70
2018-06-17T02:19:52.512Z,13.40
2018-06-17T02:22:20.333Z,13.00
2018-06-17T02:24:48.184Z,13.83
2018-06-17T02:27:16.020Z,12.60
2018-06-17T02:29:43.864Z,13.50
2018-06-17T02:32:11.924Z,14.03
2018-06-17T02:34:39.676Z,12.57
2018-06-17T02:37:08.188Z,14.10
2018-06-17T02:39:36.022Z,13.63
2018-06-17T02:42:04.225Z,13.23
2018-06-17T02:44:32.176Z,13.70
2018-06-17T02:47:05.393Z,14.47
2018-06-17T02:49:37.226Z,13.13
2018-06-17T02:52:11.396Z,13.70
2018-06-17T02:54:41.203Z,13.60
2018-06-17T02:57:13.161Z,14.27
2018-06-17T02:59:41.669Z,13.60
2018-06-17T03:02:10.170Z,13.00
2018-06-17T03:04:37.995Z,13.77
2018-06-17T03:07:05.633Z,13.37
2018-06-17T03:09:33.345Z,13.37
2018-06-17T03:12:01.008Z,12.73
2018-06-17T03:14:28.836Z,12.80
2018-06-17T03:16:56.608Z,12.13
2018-06-17T03:19:24.316Z,12.27
2018-06-17T03:21:52.176Z,12.63
2018-06-17T03:24:25.429Z,12.73
2018-06-17T03:26:58.822Z,12.80
2018-06-17T03:29:32.365Z,13.10
2018-06-17T03:32:05.711Z,12.80
2018-06-17T03:34:33.455Z,11.63
2018-06-17T03:37:01.365Z,12.47
2018-06-17T03:39:29.310Z,12.03
2018-06-17T03:41:57.055Z,12.30
2018-06-17T03:44:24.778Z,12.53
2018-06-17T03:46:52.394Z,12.60
2018-06-17T03:49:20.218Z,11.87
2018-06-17T03:51:48.028Z,11.97
2018-06-17T03:54:15.840Z,12.27
2018-06-17T03:56:43.714Z,12.40
2018-06-17T03:59:11.632Z,12.27
2018-06-17T04:01:39.402Z,12.80
2018-06-17T04:04:07.361Z,12.33
2018-06-17T04:06:35.303Z,12.00
2018-06-17T04:09:04.398Z,13.20
2018-06-17T04:11:32.378Z,12.40
2018-06-17T04:14:00.243Z,12.53
2018-06-17T04:16:28.831Z,12.07
2018-06-17T04:18:56.760Z,12.90
2018-06-17T04:21:24.638Z,13.03
2018-06-17T04:23:52.474Z,13.33
2018-06-17T04:26:20.229Z,12.37
2018-06-17T04:28:48.075Z,12.07
2018-06-17T04:31:15.975Z,12.40
2018-06-17T04:33:43.756Z,13.00
2018-06-17T04:36:11.698Z,12.93
2018-06-17T04:38:39.534Z,12.97
2018-06-17T04:41:07.243Z,12.57
2018-06-17T04:43:35.095Z,12.10
2018-06-17T04:46:03.012Z,12.57
2018-06-17T04:48:30.795Z,13.00
2018-06-17T04:50:58.595Z,12.53
2018-06-17T04:53:26.490Z,12.40
2018-06-17T04:55:54.347Z,11.93
2018-06-17T04:58:22.071Z,12.10
2018-06-17T05:00:49.873Z,11.37
2018-06-17T05:03:17.670Z,12.57
2018-06-17T05:05:45.572Z,11.93
2018-06-17T05:08:13.338Z,12.37
2018-06-17T05:10:41.162Z,11.67
2018-06-17T05:13:08.986Z,12.33
2018-06-17T05:15:36.795Z,12.23
2018-06-17T05:18:04.646Z,11.50
2018-06-17T05:20:32.558Z,11.10
2018-06-17T05:23:00.506Z,10.80
2018-06-17T05:25:28.473Z,10.27
2018-06-17T05:27:56.330Z,10.83
2018-06-17T05:30:24.292Z,10.93
2018-06-17T05:32:52.058Z,10.93
2018-06-17T05:35:19.986Z,10.70
2018-06-17T05:37:47.778Z,10.33
2018-06-17T05:40:15.693Z,10.83
2018-06-17T05:42:43.460Z,10.57
2018-06-17T05:45:11.295Z,10.77
2018-06-17T05:47:39.181Z,10.23
2018-06-17T05:50:07.040Z,10.67
2018-06-17T05:52:34.927Z,10.60
2018-06-17T05:55:02.823Z,11.73
2018-06-17T05:57:30.743Z,10.37
2018-06-17T05:59:58.692Z,10.30
2018-06-17T06:02:26.602Z,10.63
2018-06-17T06:04:54.515Z,10.70
2018-06-17T06:07:22.420Z,9.77
2018-06-17T06:09:50.250Z,10.80
2018-06-17T06:12:18.166Z,10.33
2018-06-17T06:14:46.049Z,10.30
2018-06-17T06:17:13.997Z,10.00
2018-06-17T06:19:41.794Z,10.17
2018-06-17T06:22:09.952Z,8.57
2018-06-17T06:24:43.441Z,10.33
2018-06-17T06:27:11.363Z,9.87
2018-06-17T06:29:39.188Z,7.63
2018-06-17T06:32:06.983Z,7.00
2018-06-17T06:34:34.798Z,7.93
2018-06-17T06:37:02.552Z,6.93
2018-06-17T06:39:30.465Z,7.40
2018-06-17T06:41:58.165Z,7.43
2018-06-17T06:44:26.001Z,6.27
2018-06-17T06:46:53.761Z,6.80
2018-06-17T06:49:21.499Z,8.47
2018-06-17T06:51:49.274Z,7.73
2018-06-17T06:54:17.050Z,7.40
2018-06-17T06:56:44.979Z,7.37
2018-06-17T06:59:12.805Z,6.70
2018-06-17T07:01:51.935Z,6.90
2018-06-17T07:04:30.972Z,7.90
2018-06-17T07:07:10.183Z,7.23
2018-06-17T07:09:49.242Z,7.43
2018-06-17T07:12:17.078Z,7.70
2018-06-17T07:14:44.898Z,8.83
2018-06-17T07:17:23.749Z,8.67
2018-06-17T07:19:51.539Z,8.70
2018-06-17T07:22:19.330Z,7.80
2018-06-17T07:24:47.195Z,7.40
2018-06-17T07:27:26.346Z,8.50
2018-06-17T07:29:54.245Z,10.17
2018-06-17T07:32:22.141Z,6.20
2018-06-17T07:34:49.930Z,8.20
2018-06-17T07:37:17.749Z,7.70
2018-06-17T07:40:12.029Z,8.57
2018-06-17T07:42:39.834Z,7.20
2018-06-17T07:45:07.695Z,6.73
2018-06-17T07:47:35.638Z,7.47
2018-06-17T07:50:14.574Z,7.80
2018-06-17T07:52:53.669Z,7.77
2018-06-17T07:55:21.518Z,6.23
2018-06-17T07:57:49.336Z,5.40
2018-06-17T08:00:17.274Z,5.50
2018-06-17T08:02:45.314Z,6.20
2018-06-17T08:05:13.236Z,6.23
2018-06-17T08:07:41.110Z,4.67
2018-06-17T08:10:09.535Z,6.87
2018-06-17T08:12:37.522Z,5.50
2018-06-17T08:15:05.540Z,4.73
2018-06-17T08:17:33.548Z,5.60
2018-06-17T08:20:04.933Z,5.70
2018-06-17T08:22:36.805Z,4.83
2018-06-17T08:25:06.629Z,5.67
2018-06-17T08:27:35.714Z,4.30
2018-06-17T08:30:04.985Z,4.40
2018-06-17T08:32:33.510Z,4.27
2018-06-17T08:35:03.890Z,4.43
2018-06-17T08:37:32.601Z,5.47
2018-06-17T08:40:02.719Z,4.67
2018-06-17T08:42:32.591Z,5.67
2018-06-17T08:45:01.747Z,3.90
2018-06-17T08:47:30.415Z,4.73
2018-06-17T08:49:59.542Z,4.27
2018-06-17T08:52:28.124Z,4.00
2018-06-17T08:54:56.707Z,3.83
2018-06-17T08:57:26.022Z,5.03
2018-06-17T08:59:54.498Z,5.00
2018-06-17T09:02:22.582Z,4.40
2018-06-17T09:04:50.843Z,5.30
2018-06-17T09:07:19.396Z,4.60
2018-06-17T09:09:47.485Z,4.50
2018-06-17T09:12:16.521Z,4.30
2018-06-17T09:14:44.687Z,4.80
2018-06-17T09:17:12.836Z,5.50
2018-06-17T09:19:40.905Z,5.00
2018-06-17T09:22:09.682Z,4.63
2018-06-17T09:24:38.964Z,4.87
2018-06-17T09:27:08.572Z,5.50
2018-06-17T09:29:37.958Z,6.40
2018-06-17T09:32:09.047Z,6.27
2018-06-17T09:34:37.356Z,4.70
2018-06-17T09:37:07.402Z,5.20
2018-06-17T09:39:35.759Z,4.40
2018-06-17T09:42:03.869Z,5.73
2018-06-17T09:44:34.548Z,7.50
2018-06-17T09:47:02.726Z,8.10
2018-06-17T09:49:30.521Z,10.13
2018-06-17T09:51:58.388Z,11.97
2018-06-17T09:54:26.277Z,8.20
2018-06-17T09:56:53.998Z,8.97
2018-06-17T09:59:22.080Z,9.00
2018-06-17T10:01:49.899Z,8.00
2018-06-17T10:04:17.863Z,11.27
2018-06-17T10:06:45.843Z,10.33
2018-06-17T10:09:13.686Z,8.10
2018-06-17T10:11:41.615Z,11.60
2018-06-17T10:14:09.569Z,11.13
2018-06-17T10:16:37.534Z,17.47
2018-06-17T10:19:05.524Z,11.73
2018-06-17T10:21:33.897Z,13.30
2018-06-17T10:24:08.053Z,8.63
2018-06-17T10:26:35.919Z,9.47
2018-06-17T10:29:03.684Z,10.00
2018-06-17T10:31:31.393Z,8.47
2018-06-17T10:33:59.157Z,8.70
2018-06-17T10:36:26.996Z,8.67
2018-06-17T10:38:54.895Z,9.07
2018-06-17T10:41:22.672Z,8.53
2018-06-17T10:43:50.548Z,8.60
2018-06-17T10:46:18.397Z,11.07
2018-06-17T10:48:46.268Z,8.03
2018-06-17T10:51:14.133Z,7.77
2018-06-17T10:53:42.039Z,10.10
2018-06-17T10:56:09.857Z,13.97
2018-06-17T10:58:37.682Z,9.03
2018-06-17T11:01:05.636Z,11.00
2018-06-17T11:03:33.436Z,11.17
2018-06-17T11:06:01.253Z,14.53
2018-06-17T11:08:29.075Z,10.47
2018-06-17T11:10:56.912Z,10.70
2018-06-17T11:13:24.738Z,12.43
2018-06-17T11:15:52.456Z,10.47
2018-06-17T11:18:20.322Z,13.23
2018-06-17T11:20:48.210Z,10.10
2018-06-17T11:23:16.098Z,8.50
2018-06-17T11:25:43.927Z,8.47
2018-06-17T11:28:11.798Z,9.33
2018-06-17T11:30:39.668Z,8.27
2018-06-17T11:33:07.696Z,7.70
2018-06-17T11:35:35.434Z,11.40
2018-06-17T11:38:03.195Z,7.50
2018-06-17T11:40:30.994Z,9.83
2018-06-17T11:42:58.691Z,7.20
2018-06-17T11:45:26.522Z,8.70
2018-06-17T11:47:54.343Z,7.67
2018-06-17T11:50:22.156Z,11.03
2018-06-17T11:52:49.913Z,7.10
2018-06-17T11:55:17.618Z,8.77
2018-06-17T11:57:45.511Z,9.57
2018-06-17T12:00:13.501Z,7.00
2018-06-17T12:02:41.866Z,8.60
2018-06-17T12:05:10.627Z,10.20
2018-06-17T12:07:38.984Z,13.40
2018-06-17T12:10:07.139Z,7.03
2018-06-17T12:12:34.848Z,7.17
2018-06-17T12:15:02.736Z,8.07
2018-06-17T12:17:30.500Z,7.47
2018-06-17T12:19:58.424Z,11.40
2018-06-17T12:22:26.262Z,10.03
2018-06-17T12:24:54.033Z,7.30
2018-06-17T12:27:21.987Z,6.30
2018-06-17T12:29:49.831Z,6.53
2018-06-17T12:32:17.636Z,6.10
2018-06-17T12:34:45.466Z,6.37
2018-06-17T12:37:13.331Z,5.77
2018-06-17T12:39:42.543Z,6.47
2018-06-17T12:42:10.694Z,6.70
2018-06-17T12:44:40.238Z,5.90
2018-06-17T12:47:09.842Z,5.63
2018-06-17T12:49:38.541Z,6.50
2018-06-17T12:52:06.366Z,6.10
2018-06-17T12:54:34.181Z,6.23
2018-06-17T12:57:01.952Z,4.53
2018-06-17T12:59:33.598Z,5.40
2018-06-17T13:02:01.448Z,6.43
2018-06-17T13:04:29.260Z,4.90
2018-06-17T13:06:57.128Z,4.37
2018-06-17T13:09:25.196Z,4.00
2018-06-17T13:11:53.159Z,6.80
2018-06-17T13:14:21.096Z,4.77
2018-06-17T13:16:49.095Z,3.87
2018-06-17T13:19:17.015Z,3.20
2018-06-17T13:21:45.054Z,3.27
2018-06-17T13:24:13.174Z,2.60
2018-06-17T13:26:42.072Z,3.20
2018-06-17T13:29:10.654Z,2.57
2018-06-17T13:31:40.030Z,2.90
2018-06-17T13:34:08.379Z,2.83
2018-06-17T13:36:36.385Z,2.87
2018-06-17T13:39:06.993Z,2.73
2018-06-17T13:41:41.074Z,2.70
2018-06-17T13:44:09.244Z,2.30
2018-06-17T13:46:37.118Z,2.80
2018-06-17T13:49:12.984Z,3.67
2018-06-17T13:51:41.153Z,3.27
2018-06-17T13:54:09.917Z,2.80
2018-06-17T13:56:38.096Z,3.10
2018-06-17T13:59:06.260Z,2.90
2018-06-17T14:01:40.263Z,2.93
2018-06-17T14:04:08.808Z,2.70
2018-06-17T14:06:37.377Z,3.43
2018-06-17T14:09:09.829Z,3.30
2018-06-17T14:11:38.425Z,3.30
2018-06-17T14:14:06.356Z,2.93
2018-06-17T14:16:34.371Z,3.47
2018-06-17T14:19:02.256Z,3.40
2018-06-17T14:21:29.942Z,3.80
2018-06-17T14:23:57.670Z,3.57
2018-06-17T14:26:32.054Z,3.83
2018-06-17T14:29:00.015Z,3.20
2018-06-17T14:31:27.952Z,3.53
2018-06-17T14:33:56.540Z,3.37
2018-06-17T14:36:24.446Z,3.20
2018-06-17T14:38:53.080Z,3.20
2018-06-17T14:41:28.200Z,3.37
2018-06-17T14:44:02.250Z,3.03
2018-06-17T14:46:35.887Z,3.03
2018-06-17T14:49:09.563Z,3.10
2018-06-17T14:51:42.985Z,3.20
2018-06-17T14:54:11.647Z,3.03
2018-06-17T14:56:40.214Z,2.50
2018-06-17T14:59:08.714Z,3.20
2018-06-17T15:01:36.643Z,2.50
2018-06-17T15:04:04.772Z,2.63
2018-06-17T15:06:32.680Z,2.70
2018-06-17T15:09:00.573Z,3.27
2018-06-17T15:11:28.406Z,2.77
2018-06-17T15:13:56.171Z,3.53
2018-06-17T15:16:24.012Z,4.00
2018-06-17T15:18:51.764Z,2.53
2018-06-17T15:21:19.673Z,2.90
2018-06-17T15:23:47.449Z,2.60
2018-06-17T15:26:15.387Z,3.00
2018-06-17T15:28:43.525Z,2.97
2018-06-17T15:31:17.216Z,2.53
2018-06-17T15:33:50.659Z,2.83
2018-06-17T15:36:23.843Z,3.10
2018-06-17T15:38:53.199Z,2.77
2018-06-17T15:41:25.243Z,3.20
2018-06-17T15:43:54.343Z,3.20
2018-06-17T15:46:22.119Z,3.17
2018-06-17T15:48:50.162Z,2.93
2018-06-17T15:51:18.035Z,3.50
2018-06-17T15:53:45.970Z,2.90
2018-06-17T15:56:13.943Z,3.20
2018-06-17T15:58:42.351Z,3.77
2018-06-17T16:01:11.044Z,3.40
2018-06-17T16:03:39.520Z,4.50
2018-06-17T16:06:07.563Z,4.40
2018-06-17T16:08:36.260Z,4.50
2018-06-17T16:11:04.393Z,5.23
2018-06-17T16:13:37.761Z,4.50
2018-06-17T16:16:11.706Z,5.07
2018-06-17T16:18:45.459Z,4.10
2018-06-17T16:21:15.564Z,4.00
2018-06-17T16:23:44.506Z,3.83
2018-06-17T16:26:12.948Z,3.87
2018-06-17T16:28:41.560Z,3.30
2018-06-17T16:31:10.146Z,3.30
2018-06-17T16:33:38.297Z,3.50
2018-06-17T16:36:06.161Z,3.10
2018-06-17T16:38:34.046Z,4.17
2018-06-17T16:41:03.750Z,2.87
2018-06-17T16:43:31.365Z,2.77
2018-06-17T16:45:59.322Z,2.80
2018-06-17T16:48:27.092Z,3.60
2018-06-17T16:51:00.534Z,3.60
2018-06-17T16:53:33.848Z,2.53
2018-06-17T16:56:07.202Z,2.47
2018-06-17T16:58:40.719Z,2.90
2018-06-17T17:01:08.674Z,2.77
2018-06-17T17:03:36.540Z,2.70
2018-06-17T17:06:04.778Z,2.70
2018-06-17T17:08:33.434Z,2.53
2018-06-17T17:11:01.159Z,2.80
2018-06-17T17:13:29.002Z,3.03
2018-06-17T17:15:56.740Z,2.87
2018-06-17T17:18:24.672Z,2.93
2018-06-17T17:20:52.446Z,2.70
2018-06-17T17:23:20.313Z,3.00
2018-06-17T17:25:48.142Z,2.80
2018-06-17T17:28:16.002Z,2.53
2018-06-17T17:30:49.298Z,2.30
2018-06-17T17:33:22.806Z,4.57
2018-06-17T17:35:59.980Z,3.73
2018-06-17T17:39:30.858Z,2.10
2018-06-17T17:42:02.528Z,9.60
2018-06-17T17:44:34.880Z,8.47
2018-06-17T17:47:08.655Z,5.00
2018-06-17T17:49:36.961Z,4.07
2018-06-17T17:52:04.783Z,1.57
2018-06-17T17:54:33.065Z,3.87
2018-06-17T17:57:05.745Z,3.20
2018-06-17T17:59:33.802Z,1.77
2018-06-17T18:02:01.733Z,3.07
2018-06-17T18:04:29.592Z,1.60
2018-06-17T18:06:57.440Z,1.80
2018-06-17T18:09:25.274Z,1.70
2018-06-17T18:11:53.243Z,1.93
2018-06-17T18:14:21.249Z,4.73
2018-06-17T18:16:49.230Z,2.20
2018-06-17T18:19:17.039Z,3.17
2018-06-17T18:21:44.801Z,3.30
2018-06-17T18:24:12.906Z,2.67
2018-06-17T18:26:46.539Z,6.47
2018-06-17T18:29:19.868Z,4.30
2018-06-17T18:31:53.356Z,2.90
2018-06-17T18:34:26.942Z,1.90
2018-06-17T18:36:54.800Z,3.97
2018-06-17T18:39:22.755Z,5.40
2018-06-17T18:41:50.661Z,14.13
2018-06-17T18:44:18.590Z,9.10
2018-06-17T18:46:46.422Z,5.30
2018-06-17T18:49:14.105Z,3.40
2018-06-17T18:51:42.370Z,3.10
2018-06-17T18:54:10.951Z,2.67
2018-06-17T18:56:39.344Z,2.70
2018-06-17T18:59:07.323Z,3.13
2018-06-17T19:01:35.358Z,2.27
2018-06-17T19:04:03.135Z,3.27
2018-06-17T19:06:30.972Z,2.37
2018-06-17T19:09:04.465Z,2.30
2018-06-17T19:11:38.380Z,2.03
2018-06-17T19:14:11.961Z,2.10
2018-06-17T19:16:46.994Z,2.00
2018-06-17T19:19:14.960Z,2.90
2018-06-17T19:21:42.865Z,2.47
2018-06-17T19:24:10.662Z,2.10
2018-06-17T19:26:38.660Z,2.77
2018-06-17T19:29:06.667Z,2.73
2018-06-17T19:31:35.012Z,3.30
2018-06-17T19:34:02.851Z,3.17
2018-06-17T19:36:30.691Z,3.33
2018-06-17T19:38:58.517Z,3.23
2018-06-17T19:41:26.429Z,2.80
2018-06-17T19:43:54.073Z,3.27
2018-06-17T19:46:21.669Z,2.83
2018-06-17T19:48:49.157Z,3.30
2018-06-17T19:51:22.475Z,2.60
2018-06-17T19:53:55.688Z,2.37
2018-06-17T19:56:29.017Z,2.60
2018-06-17T19:59:02.024Z,2.70
2018-06-17T20:01:29.764Z,2.40
2018-06-17T20:03:57.619Z,2.20
2018-06-17T20:06:25.476Z,2.10
2018-06-17T20:08:53.206Z,2.03
2018-06-17T20:11:20.946Z,1.90
2018-06-17T20:13:48.783Z,2.40
2018-06-17T20:16:17.168Z,2.17
2018-06-17T20:18:45.487Z,2.00
2018-06-17T20:21:13.662Z,2.00
2018-06-17T20:23:41.781Z,1.70
2018-06-17T20:26:09.942Z,1.77
2018-06-17T20:28:38.368Z,11.43
2018-06-17T20:31:06.930Z,2.30
2018-06-17T20:33:40.574Z,1.90
2018-06-17T20:36:14.075Z,1.87
2018-06-17T20:38:54.230Z,1.70
2018-06-17T20:41:27.613Z,2.00
2018-06-17T20:43:55.547Z,2.43
2018-06-17T20:46:23.433Z,2.30
2018-06-17T20:48:51.226Z,1.77
2018-06-17T20:51:19.705Z,1.90
2018-06-17T20:53:47.964Z,1.60
2018-06-17T20:56:15.729Z,1.80
2018-06-17T20:58:44.533Z,1.83
2018-06-17T21:01:12.477Z,1.80
2018-06-17T21:03:40.783Z,1.83
2018-06-17T21:06:08.982Z,1.77
2018-06-17T21:08:36.827Z,2.00
2018-06-17T21:11:04.585Z,1.90
2018-06-17T21:13:32.420Z,1.90
2018-06-17T21:16:00.274Z,2.77
2018-06-17T21:18:33.705Z,2.43
2018-06-17T21:21:07.232Z,2.40
2018-06-17T21:23:40.645Z,3.23
2018-06-17T21:26:14.106Z,2.30
2018-06-17T21:28:42.038Z,2.40
2018-06-17T21:31:11.026Z,2.60
2018-06-17T21:33:38.656Z,2.70
2018-06-17T21:36:06.617Z,3.93
2018-06-17T21:38:34.438Z,2.20
2018-06-17T21:41:02.224Z,2.00
2018-06-17T21:43:30.065Z,2.10
2018-06-17T21:45:57.982Z,2.60
2018-06-17T21:48:25.787Z,2.23
2018-06-17T21:50:53.595Z,2.10
2018-06-17T21:53:21.359Z,2.60
2018-06-17T21:55:48.981Z,2.33
2018-06-17T21:58:21.301Z,2.37
2018-06-17T22:00:49.293Z,2.20
2018-06-17T22:03:16.932Z,2.10
2018-06-17T22:05:44.816Z,2.60
2018-06-17T22:08:18.290Z,2.20
2018-06-17T22:10:51.865Z,2.40
2018-06-17T22:13:19.620Z,3.30
2018-06-17T22:15:53.170Z,4.83
2018-06-17T22:18:21.020Z,3.40
2018-06-17T22:20:48.914Z,3.27
2018-06-17T22:23:16.570Z,3.97
2018-06-17T22:25:44.348Z,2.63
2018-06-17T22:28:12.103Z,2.20
2018-06-17T22:30:40.029Z,3.03
2018-06-17T22:33:07.813Z,4.07
2018-06-17T22:35:35.755Z,2.43
2018-06-17T22:38:03.551Z,2.40
2018-06-17T22:40:31.365Z,2.40
2018-06-17T22:42:59.133Z,2.33
2018-06-17T22:45:26.860Z,2.00
2018-06-17T22:47:58.746Z,2.00
2018-06-17T22:50:26.884Z,2.67
2018-06-17T22:53:05.902Z,2.53
2018-06-17T22:55:33.731Z,2.30
2018-06-17T22:58:06.956Z,2.40
2018-06-17T23:00:40.377Z,2.40
2018-06-17T23:03:13.787Z,2.80
2018-06-17T23:05:47.335Z,3.00
2018-06-17T23:08:20.825Z,2.50
2018-06-17T23:10:48.676Z,2.33
2018-06-17T23:13:16.535Z,2.50
2018-06-17T23:15:44.444Z,2.40
2018-06-17T23:18:12.310Z,2.10
2018-06-17T23:20:40.134Z,2.07
2018-06-17T23:23:07.998Z,2.07
2018-06-17T23:25:35.970Z,2.00
2018-06-17T23:28:03.713Z,2.33
2018-06-17T23:30:31.661Z,2.10
2018-06-17T23:32:59.566Z,2.40
2018-06-17T23:35:27.404Z,2.03
2018-06-17T23:37:55.260Z,2.20
2018-06-17T23:40:23.054Z,2.33
2018-06-17T23:42:50.801Z,2.20
2018-06-17T23:45:18.642Z,2.27
2018-06-17T23:47:52.037Z,2.30
2018-06-17T23:50:25.417Z,2.37
2018-06-17T23:52:58.739Z,2.60
2018-06-17T23:55:32.077Z,2.33
2018-06-17T23:57:59.960Z,2.40
